createdAt,value
2019-05-02T00:01:41.025Z,100863.23
2019-05-02T00:04:12.429Z,100853.63
2019-05-02T00:06:42.925Z,100852.92
2019-05-02T00:09:11.144Z,100846.28
2019-05-02T00:11:40.030Z,100841.28
2019-05-02T00:14:09.529Z,100841.28
2019-05-02T00:16:37.945Z,100840.28
2019-05-02T00:19:09.083Z,100833.30
2019-05-02T00:21:38.167Z,100826.33
2019-05-02T00:24:09.039Z,100828.31
2019-05-02T00:26:38.201Z,100829.97
2019-05-02T00:29:06.614Z,100828.64
2019-05-02T00:31:35.025Z,100829.97
2019-05-02T00:34:03.512Z,100824.84
2019-05-02T00:36:31.934Z,100822.98
2019-05-02T00:39:00.394Z,100834.29
2019-05-02T00:41:33.034Z,100832.63
2019-05-02T00:43:59.218Z,100823.31
2019-05-02T00:46:30.230Z,100822.83
2019-05-02T00:49:01.445Z,100817.52
2019-05-02T00:51:29.922Z,100816.67
2019-05-02T00:53:58.341Z,100812.34
2019-05-02T00:56:26.938Z,100816.02
2019-05-02T00:58:55.366Z,100812.53
2019-05-02T01:01:29.556Z,100807.75
2019-05-02T01:04:02.935Z,100799.45
2019-05-02T01:06:31.359Z,100801.12
2019-05-02T01:08:59.796Z,100797.16
2019-05-02T01:11:32.122Z,100788.86
2019-05-02T01:13:58.828Z,100787.21
2019-05-02T01:16:27.275Z,100788.88
2019-05-02T01:18:55.831Z,100780.92
2019-05-02T01:21:24.247Z,100781.62
2019-05-02T01:23:52.677Z,100770.33
2019-05-02T01:26:24.216Z,100769.00
2019-05-02T01:29:00.731Z,100768.00
2019-05-02T01:31:34.094Z,100762.01
2019-05-02T01:34:20.946Z,100759.30
2019-05-02T01:36:51.047Z,100753.16
2019-05-02T01:39:19.656Z,100761.28
2019-05-02T01:41:48.093Z,100758.46
2019-05-02T01:44:16.623Z,100748.48
2019-05-02T01:46:45.094Z,100736.33
2019-05-02T01:49:16.926Z,100737.31
2019-05-02T01:51:47.678Z,100740.62
2019-05-02T01:54:14.061Z,100729.64
2019-05-02T01:56:42.667Z,100729.30
2019-05-02T01:59:11.105Z,100728.10
2019-05-02T02:01:39.556Z,100721.95
2019-05-02T02:04:08.026Z,100722.90
2019-05-02T02:06:38.731Z,100724.20
2019-05-02T02:09:09.781Z,100712.41
2019-05-02T02:11:38.529Z,100707.22
2019-05-02T02:14:12.689Z,100703.23
2019-05-02T02:16:39.291Z,100706.05
2019-05-02T02:19:21.654Z,100702.72
2019-05-02T02:22:02.931Z,100698.53
2019-05-02T02:24:38.216Z,100694.19
2019-05-02T02:27:05.697Z,100689.33
2019-05-02T02:29:34.122Z,100682.19
2019-05-02T02:32:03.035Z,100682.84
2019-05-02T02:34:32.408Z,100679.17
2019-05-02T02:37:05.330Z,100671.19
2019-05-02T02:39:31.221Z,100669.86
2019-05-02T02:41:59.654Z,100669.53
2019-05-02T02:44:41.869Z,100677.16
2019-05-02T02:47:11.815Z,100665.19
2019-05-02T02:49:40.634Z,100664.18
2019-05-02T02:52:09.226Z,100664.51
2019-05-02T02:54:43.318Z,100655.48
2019-05-02T02:57:20.863Z,100658.80
2019-05-02T02:59:38.047Z,100660.45
2019-05-02T03:02:09.919Z,100656.78
2019-05-02T03:04:36.739Z,100655.78
2019-05-02T03:07:05.274Z,100656.78
2019-05-02T03:09:33.697Z,100655.13
2019-05-02T03:12:22.893Z,100648.15
2019-05-02T03:14:55.894Z,100647.80
2019-05-02T03:17:25.912Z,100647.80
2019-05-02T03:20:01.121Z,100638.47
2019-05-02T03:22:24.874Z,100626.17
2019-05-02T03:24:53.655Z,100622.02
2019-05-02T03:27:22.122Z,100623.52
2019-05-02T03:29:50.542Z,100626.50
2019-05-02T03:32:32.128Z,100623.84
2019-05-02T03:34:53.466Z,100622.83
2019-05-02T03:37:20.103Z,100621.66
2019-05-02T03:39:56.530Z,100622.47
2019-05-02T03:42:19.567Z,100619.13
2019-05-02T03:44:55.209Z,100619.13
2019-05-02T03:47:18.183Z,100613.13
2019-05-02T03:49:48.650Z,100611.11
2019-05-02T03:52:16.963Z,100618.73
2019-05-02T03:54:49.938Z,100623.05
2019-05-02T03:57:15.623Z,100612.04
2019-05-02T03:59:44.419Z,100611.03
2019-05-02T04:02:14.234Z,100606.84
2019-05-02T04:04:44.150Z,100608.01
2019-05-02T04:07:13.708Z,100598.00
2019-05-02T04:09:42.763Z,100598.66
2019-05-02T04:12:18.642Z,100596.92
2019-05-02T04:14:43.158Z,100597.89
2019-05-02T04:17:12.131Z,100599.87
2019-05-02T04:19:41.565Z,100602.86
2019-05-02T04:22:12.141Z,100601.48
2019-05-02T04:24:47.914Z,100595.80
2019-05-02T04:27:13.126Z,100601.56
2019-05-02T04:29:41.951Z,100600.07
2019-05-02T04:32:12.335Z,100604.71
2019-05-02T04:34:40.856Z,100603.05
2019-05-02T04:37:09.308Z,100600.39
2019-05-02T04:39:39.046Z,100596.08
2019-05-02T04:42:12.935Z,100599.55
2019-05-02T04:44:44.613Z,100595.06
2019-05-02T04:47:14.842Z,100600.39
2019-05-02T04:49:39.285Z,100599.70
2019-05-02T04:52:11.585Z,100598.38
2019-05-02T04:54:38.912Z,100593.86
2019-05-02T04:57:08.850Z,100600.84
2019-05-02T04:59:39.575Z,100599.02
2019-05-02T05:02:09.486Z,100597.36
2019-05-02T05:04:45.909Z,100606.36
2019-05-02T05:07:09.518Z,100597.73
2019-05-02T05:09:39.969Z,100611.86
2019-05-02T05:12:08.862Z,100604.39
2019-05-02T05:14:39.111Z,100601.72
2019-05-02T05:17:07.994Z,100596.72
2019-05-02T05:19:37.353Z,100595.19
2019-05-02T05:22:08.779Z,100588.36
2019-05-02T05:24:43.636Z,100599.50
2019-05-02T05:27:13.169Z,100598.70
2019-05-02T05:29:42.220Z,100598.17
2019-05-02T05:32:10.710Z,100596.35
2019-05-02T05:34:39.482Z,100595.66
2019-05-02T05:37:09.505Z,100598.28
2019-05-02T05:39:38.296Z,100603.37
2019-05-02T05:42:08.401Z,100598.80
2019-05-02T05:44:39.726Z,100589.43
2019-05-02T05:47:12.156Z,100600.56
2019-05-02T05:49:38.271Z,100592.00
2019-05-02T05:52:08.026Z,100601.66
2019-05-02T05:54:41.641Z,100589.14
2019-05-02T05:57:07.784Z,100598.30
2019-05-02T05:59:38.028Z,100591.27
2019-05-02T06:02:12.649Z,100583.73
2019-05-02T06:04:38.731Z,100583.48
2019-05-02T06:07:07.399Z,100580.39
2019-05-02T06:09:39.189Z,100575.53
2019-05-02T06:12:07.655Z,100575.33
2019-05-02T06:14:36.582Z,100576.61
2019-05-02T06:17:05.327Z,100583.59
2019-05-02T06:19:33.763Z,100571.91
2019-05-02T06:22:02.199Z,100580.29
2019-05-02T06:24:33.761Z,100581.80
2019-05-02T06:27:01.117Z,100583.33
2019-05-02T06:29:29.718Z,100576.98
2019-05-02T06:32:01.820Z,100578.00
2019-05-02T06:34:29.663Z,100580.34
2019-05-02T06:36:58.062Z,100581.67
2019-05-02T06:39:27.092Z,100571.65
2019-05-02T06:41:58.554Z,100575.97
2019-05-02T06:44:26.938Z,100573.09
2019-05-02T06:46:59.265Z,100581.56
2019-05-02T06:49:26.106Z,100574.58
2019-05-02T06:51:56.113Z,100574.58
2019-05-02T06:54:24.833Z,100570.27
2019-05-02T06:56:53.286Z,100568.92
2019-05-02T06:59:21.808Z,100573.89
2019-05-02T07:01:52.383Z,100565.83
2019-05-02T07:04:23.095Z,100560.73
2019-05-02T07:06:58.500Z,100565.30
2019-05-02T07:09:21.341Z,100557.25
2019-05-02T07:11:57.090Z,100567.86
2019-05-02T07:14:23.753Z,100565.83
2019-05-02T07:17:05.809Z,100564.88
2019-05-02T07:19:44.914Z,100566.73
2019-05-02T07:22:13.545Z,100562.90
2019-05-02T07:24:42.034Z,100563.91
2019-05-02T07:27:10.499Z,100562.58
2019-05-02T07:29:40.070Z,100562.58
2019-05-02T07:32:08.917Z,100561.25
2019-05-02T07:34:37.354Z,100565.56
2019-05-02T07:37:08.349Z,100566.59
2019-05-02T07:39:36.253Z,100565.25
2019-05-02T07:42:07.932Z,100558.32
2019-05-02T07:44:36.455Z,100560.30
2019-05-02T07:47:05.540Z,100560.98
2019-05-02T07:49:34.538Z,100553.36
2019-05-02T07:52:03.954Z,100551.54
2019-05-02T07:54:32.410Z,100556.88
2019-05-02T07:57:02.459Z,100566.06
2019-05-02T07:59:31.177Z,100558.96
2019-05-02T08:01:59.614Z,100562.20
2019-05-02T08:04:28.039Z,100562.58
2019-05-02T08:06:56.577Z,100564.46
2019-05-02T08:09:25.411Z,100568.87
2019-05-02T08:11:53.851Z,100566.69
2019-05-02T08:14:22.311Z,100561.09
2019-05-02T08:16:50.891Z,100561.30
2019-05-02T08:19:19.387Z,100556.34
2019-05-02T08:21:48.137Z,100564.50
2019-05-02T08:24:16.591Z,100560.19
2019-05-02T08:27:04.745Z,100564.27
2019-05-02T08:29:33.542Z,100558.62
2019-05-02T08:32:01.957Z,100564.92
2019-05-02T08:34:33.484Z,100561.28
2019-05-02T08:37:03.419Z,100567.11
2019-05-02T08:39:33.898Z,100565.30
2019-05-02T08:42:02.934Z,100563.81
2019-05-02T08:44:31.354Z,100565.99
2019-05-02T08:46:59.801Z,100563.64
2019-05-02T08:49:28.247Z,100560.29
2019-05-02T08:51:56.674Z,100561.95
2019-05-02T08:54:28.046Z,100564.92
2019-05-02T08:56:58.993Z,100567.27
2019-05-02T08:59:26.212Z,100561.63
2019-05-02T09:01:54.723Z,100569.62
2019-05-02T09:04:24.085Z,100560.29
2019-05-02T09:06:58.630Z,100566.27
2019-05-02T09:09:28.113Z,100562.62
2019-05-02T09:12:04.910Z,100560.09
2019-05-02T09:14:24.334Z,100561.10
2019-05-02T09:16:52.762Z,100558.44
2019-05-02T09:19:26.264Z,100557.42
2019-05-02T09:21:52.569Z,100563.59
2019-05-02T09:24:23.816Z,100566.61
2019-05-02T09:26:52.015Z,100560.93
2019-05-02T09:29:22.223Z,100563.59
2019-05-02T09:31:52.678Z,100564.61
2019-05-02T09:34:22.962Z,100555.59
2019-05-02T09:36:52.997Z,100567.59
2019-05-02T09:39:22.694Z,100563.97
2019-05-02T09:41:52.647Z,100558.64
2019-05-02T09:44:22.423Z,100557.62
2019-05-02T09:46:53.096Z,100555.28
2019-05-02T09:49:22.081Z,100551.28
2019-05-02T09:51:59.147Z,100542.10
2019-05-02T09:54:26.513Z,100546.69
2019-05-02T09:56:55.249Z,100546.43
2019-05-02T09:59:30.096Z,100558.89
2019-05-02T10:01:55.473Z,100547.70
2019-05-02T10:04:23.968Z,100549.19
2019-05-02T10:06:52.663Z,100550.64
2019-05-02T10:09:25.747Z,100545.63
2019-05-02T10:11:52.470Z,100545.25
2019-05-02T10:14:22.609Z,100541.19
2019-05-02T10:16:52.981Z,100538.15
2019-05-02T10:19:25.876Z,100541.45
2019-05-02T10:21:56.261Z,100532.93
2019-05-02T10:24:22.299Z,100530.05
2019-05-02T10:26:57.100Z,100525.67
2019-05-02T10:29:28.107Z,100526.95
2019-05-02T10:31:52.661Z,100518.57
2019-05-02T10:34:22.653Z,100522.13
2019-05-02T10:36:58.507Z,100509.05
2019-05-02T10:39:23.518Z,100510.63
2019-05-02T10:41:52.706Z,100497.83
2019-05-02T10:44:22.552Z,100499.41
2019-05-02T10:46:58.385Z,100494.00
2019-05-02T10:49:34.675Z,100505.13
2019-05-02T10:52:03.099Z,100498.56
2019-05-02T10:54:33.671Z,100496.70
2019-05-02T10:57:02.380Z,100496.53
2019-05-02T10:59:32.782Z,100488.14
2019-05-02T11:02:05.606Z,100486.73
2019-05-02T11:04:35.696Z,100479.98
2019-05-02T11:07:04.404Z,100481.22
2019-05-02T11:09:33.162Z,100488.52
2019-05-02T11:12:03.110Z,100466.28
2019-05-02T11:14:36.160Z,100474.78
2019-05-02T11:17:08.685Z,100470.28
2019-05-02T11:19:42.016Z,100469.05
2019-05-02T11:22:12.137Z,100479.87
2019-05-02T11:24:41.828Z,100461.52
2019-05-02T11:27:10.372Z,100463.64
2019-05-02T11:29:38.793Z,100456.06
2019-05-02T11:32:07.541Z,100459.38
2019-05-02T11:34:35.992Z,100451.52
2019-05-02T11:37:04.633Z,100456.91
2019-05-02T11:39:42.842Z,100458.16
2019-05-02T11:42:03.247Z,100454.55
2019-05-02T11:44:32.677Z,100453.74
2019-05-02T11:47:01.955Z,100457.04
2019-05-02T11:49:31.951Z,100462.80
2019-05-02T11:52:04.304Z,100457.54
2019-05-02T11:54:31.994Z,100447.34
2019-05-02T11:57:02.217Z,100449.92
2019-05-02T11:59:32.023Z,100432.38
2019-05-02T12:02:02.787Z,100433.08
2019-05-02T12:04:32.576Z,100437.89
2019-05-02T12:07:04.742Z,100433.13
2019-05-02T12:09:31.974Z,100429.95
2019-05-02T12:12:02.562Z,100429.65
2019-05-02T12:14:34.618Z,100428.31
2019-05-02T12:17:02.600Z,100422.64
2019-05-02T12:19:32.247Z,100424.30
2019-05-02T12:22:02.666Z,100413.17
2019-05-02T12:24:31.864Z,100416.66
2019-05-02T12:27:02.556Z,100417.48
2019-05-02T12:29:31.269Z,100411.28
2019-05-02T12:31:59.736Z,100410.05
2019-05-02T12:34:28.526Z,100411.92
2019-05-02T12:36:56.948Z,100406.25
2019-05-02T12:39:25.610Z,100404.22
2019-05-02T12:41:54.602Z,100408.34
2019-05-02T12:44:24.200Z,100408.44
2019-05-02T12:46:52.865Z,100409.45
2019-05-02T12:49:25.392Z,100412.64
2019-05-02T12:51:52.487Z,100402.52
2019-05-02T12:54:21.929Z,100396.41
2019-05-02T12:56:52.655Z,100396.15
2019-05-02T12:59:22.527Z,100396.95
2019-05-02T13:01:51.934Z,100414.67
2019-05-02T13:04:22.788Z,100400.89
2019-05-02T13:06:53.026Z,100405.83
2019-05-02T13:09:23.377Z,100397.41
2019-05-02T13:11:59.950Z,100393.12
2019-05-02T13:14:31.912Z,100396.64
2019-05-02T13:17:05.254Z,100382.44
2019-05-02T13:19:40.000Z,100391.53
2019-05-02T13:22:04.274Z,100392.14
2019-05-02T13:24:36.801Z,100405.34
2019-05-02T13:27:07.546Z,100394.02
2019-05-02T13:29:36.304Z,100394.12
2019-05-02T13:32:08.749Z,100401.84
2019-05-02T13:34:43.662Z,100391.33
2019-05-02T13:37:12.926Z,100398.33
2019-05-02T13:39:43.295Z,100382.38
2019-05-02T13:42:12.618Z,100382.58
2019-05-02T13:44:59.410Z,100384.73
2019-05-02T13:47:32.409Z,100374.41
2019-05-02T13:50:03.607Z,100366.41
2019-05-02T13:52:33.090Z,100356.33
2019-05-02T13:55:01.937Z,100363.16
2019-05-02T13:57:34.930Z,100357.56
2019-05-02T14:00:02.309Z,100353.67
2019-05-02T14:02:42.828Z,100357.02
2019-05-02T14:05:13.761Z,100350.05
2019-05-02T14:07:54.061Z,100343.77
2019-05-02T14:10:32.246Z,100330.36
2019-05-02T14:13:03.253Z,100346.91
2019-05-02T14:15:39.608Z,100352.41
2019-05-02T14:18:08.118Z,100347.96
2019-05-02T14:20:37.489Z,100335.58
2019-05-02T14:23:06.596Z,100349.23
2019-05-02T14:25:35.073Z,100338.20
2019-05-02T14:28:03.500Z,100343.06
2019-05-02T14:30:39.338Z,100348.08
2019-05-02T14:33:03.815Z,100335.53
2019-05-02T14:35:36.277Z,100335.28
2019-05-02T14:38:10.423Z,100333.03
2019-05-02T14:40:45.716Z,100331.92
2019-05-02T14:43:15.808Z,100336.98
2019-05-02T14:45:44.254Z,100326.56
2019-05-02T14:48:21.043Z,100314.55
2019-05-02T14:50:45.899Z,100323.44
2019-05-02T14:53:16.899Z,100334.31
2019-05-02T14:55:47.210Z,100313.41
2019-05-02T14:58:16.443Z,100305.93
2019-05-02T15:00:48.074Z,100310.39
2019-05-02T15:03:19.213Z,100303.55
2019-05-02T15:05:48.661Z,100324.75
2019-05-02T15:08:17.088Z,100316.87
2019-05-02T15:10:52.503Z,100303.45
2019-05-02T15:13:16.139Z,100300.16
2019-05-02T15:15:44.576Z,100299.86
2019-05-02T15:18:17.403Z,100303.52
2019-05-02T15:20:43.367Z,100310.22
2019-05-02T15:23:17.596Z,100303.34
2019-05-02T15:25:42.414Z,100302.22
2019-05-02T15:28:13.104Z,100303.51
2019-05-02T15:30:48.109Z,100291.63
2019-05-02T15:33:17.114Z,100295.18
2019-05-02T15:35:57.278Z,100292.50
2019-05-02T15:38:27.328Z,100286.25
2019-05-02T15:40:53.796Z,100294.60
2019-05-02T15:43:22.915Z,100294.50
2019-05-02T15:45:52.658Z,100289.66
2019-05-02T15:48:27.061Z,100314.35
2019-05-02T15:50:53.088Z,100309.34
2019-05-02T15:53:44.693Z,100306.88
2019-05-02T15:56:19.439Z,100333.77
2019-05-02T15:58:42.565Z,100336.90
2019-05-02T16:01:12.866Z,100350.80
2019-05-02T16:03:48.709Z,100348.27
2019-05-02T16:06:21.847Z,100354.14
2019-05-02T16:08:47.317Z,100365.84
2019-05-02T16:11:17.566Z,100364.74
2019-05-02T16:13:52.434Z,100367.56
2019-05-02T16:16:21.885Z,100371.41
2019-05-02T16:18:52.339Z,100379.17
2019-05-02T16:21:40.192Z,100388.75
2019-05-02T16:24:22.929Z,100386.37
2019-05-02T16:26:53.209Z,100384.42
2019-05-02T16:29:26.873Z,100390.67
2019-05-02T16:31:59.706Z,100390.20
2019-05-02T16:34:33.892Z,100397.00
2019-05-02T16:37:16.775Z,100394.79
2019-05-02T16:39:49.473Z,100403.93
2019-05-02T16:42:14.079Z,100416.73
2019-05-02T16:44:43.058Z,100420.22
2019-05-02T16:47:13.638Z,100420.39
2019-05-02T16:49:43.332Z,100415.75
2019-05-02T16:52:12.775Z,100419.73
2019-05-02T16:54:43.819Z,100415.16
2019-05-02T16:57:17.254Z,100408.59
2019-05-02T16:59:43.357Z,100411.62
2019-05-02T17:02:12.332Z,100412.11
2019-05-02T17:04:42.723Z,100411.25
2019-05-02T17:07:13.027Z,100411.86
2019-05-02T17:09:49.380Z,100410.84
2019-05-02T17:12:18.008Z,100407.86
2019-05-02T17:14:53.497Z,100403.55
2019-05-02T17:17:18.214Z,100403.95
2019-05-02T17:19:47.123Z,100403.63
2019-05-02T17:22:16.644Z,100407.94
2019-05-02T17:24:45.899Z,100396.97
2019-05-02T17:27:20.589Z,100404.64
2019-05-02T17:29:44.693Z,100403.63
2019-05-02T17:32:13.107Z,100403.95
2019-05-02T17:34:42.205Z,100405.92
2019-05-02T17:37:13.546Z,100406.53
2019-05-02T17:39:42.660Z,100409.19
2019-05-02T17:42:17.009Z,100410.36
2019-05-02T17:44:45.244Z,100410.47
2019-05-02T17:47:14.297Z,100404.77
2019-05-02T17:49:43.252Z,100412.39
2019-05-02T17:52:19.071Z,100410.36
2019-05-02T17:54:43.452Z,100404.66
2019-05-02T17:57:12.007Z,100408.77
2019-05-02T17:59:42.182Z,100410.58
2019-05-02T18:02:14.216Z,100410.25
2019-05-02T18:04:41.927Z,100409.62
2019-05-02T18:07:11.697Z,100409.99
2019-05-02T18:09:41.889Z,100409.35
2019-05-02T18:12:14.465Z,100410.56
2019-05-02T18:14:42.188Z,100411.75
2019-05-02T18:17:12.623Z,100412.77
2019-05-02T18:19:42.565Z,100419.09
2019-05-02T18:22:23.480Z,100414.62
2019-05-02T18:24:44.807Z,100423.73
2019-05-02T18:27:12.908Z,100426.72
2019-05-02T18:29:45.295Z,100440.23
2019-05-02T18:32:12.804Z,100432.41
2019-05-02T18:34:41.982Z,100441.41
2019-05-02T18:37:10.705Z,100431.13
2019-05-02T18:39:42.611Z,100439.70
2019-05-02T18:42:11.822Z,100446.23
2019-05-02T18:44:41.939Z,100449.44
2019-05-02T18:47:12.479Z,100452.47
2019-05-02T18:49:41.853Z,100451.02
2019-05-02T18:52:11.711Z,100445.36
2019-05-02T18:54:43.931Z,100455.49
2019-05-02T18:57:11.994Z,100454.04
2019-05-02T18:59:40.451Z,100453.40
2019-05-02T19:02:09.158Z,100451.42
2019-05-02T19:04:39.719Z,100457.27
2019-05-02T19:07:12.770Z,100457.44
2019-05-02T19:09:48.481Z,100463.45
2019-05-02T19:12:13.569Z,100465.66
2019-05-02T19:14:39.081Z,100465.83
2019-05-02T19:17:07.739Z,100469.50
2019-05-02T19:19:36.895Z,100467.69
2019-05-02T19:22:07.510Z,100471.16
2019-05-02T19:24:36.613Z,100472.48
2019-05-02T19:27:05.388Z,100474.50
2019-05-02T19:29:33.825Z,100473.38
2019-05-02T19:32:02.553Z,100469.58
2019-05-02T19:34:32.373Z,100478.56
2019-05-02T19:37:03.109Z,100471.39
2019-05-02T19:39:32.394Z,100476.72
2019-05-02T19:42:02.437Z,100481.23
2019-05-02T19:44:32.041Z,100478.89
2019-05-02T19:47:02.537Z,100486.88
2019-05-02T19:49:32.878Z,100490.55
2019-05-02T19:52:02.330Z,100490.91
2019-05-02T19:54:39.328Z,100495.91
2019-05-02T19:57:02.574Z,100491.95
2019-05-02T19:59:32.109Z,100505.27
2019-05-02T20:02:02.447Z,100506.27
2019-05-02T20:04:32.746Z,100512.59
2019-05-02T20:07:01.027Z,100508.77
2019-05-02T20:09:29.456Z,100516.46
2019-05-02T20:11:57.904Z,100509.66
2019-05-02T20:14:26.381Z,100506.70
2019-05-02T20:16:56.927Z,100515.89
2019-05-02T20:19:27.142Z,100515.05
2019-05-02T20:22:03.030Z,100516.05
2019-05-02T20:24:29.299Z,100518.91
2019-05-02T20:26:57.743Z,100517.80
2019-05-02T20:29:26.313Z,100523.94
2019-05-02T20:31:54.741Z,100520.30
2019-05-02T20:34:23.302Z,100521.99
2019-05-02T20:36:51.942Z,100507.07
2019-05-02T20:39:22.349Z,100506.97
2019-05-02T20:41:52.906Z,100525.63
2019-05-02T20:44:21.741Z,100529.98
2019-05-02T20:46:51.642Z,100530.73
2019-05-02T20:49:20.128Z,100534.42
2019-05-02T20:51:48.544Z,100527.15
2019-05-02T20:54:16.962Z,100526.52
2019-05-02T20:56:45.519Z,100534.38
2019-05-02T20:59:13.947Z,100528.25
2019-05-02T21:01:43.025Z,100529.73
2019-05-02T21:04:12.266Z,100534.08
2019-05-02T21:06:45.339Z,100539.41
2019-05-02T21:09:32.432Z,100543.93
2019-05-02T21:12:03.955Z,100549.78
2019-05-02T21:14:32.554Z,100541.33
2019-05-02T21:17:02.164Z,100545.52
2019-05-02T21:19:32.349Z,100551.37
2019-05-02T21:22:04.000Z,100555.37
2019-05-02T21:24:33.084Z,100559.36
2019-05-02T21:27:01.980Z,100560.03
2019-05-02T21:29:32.142Z,100553.07
2019-05-02T21:32:00.884Z,100564.34
2019-05-02T21:34:29.410Z,100564.83
2019-05-02T21:36:58.108Z,100561.03
2019-05-02T21:39:26.909Z,100566.02
2019-05-02T21:41:55.404Z,100564.22
2019-05-02T21:44:23.837Z,100559.73
2019-05-02T21:46:52.297Z,100564.73
2019-05-02T21:49:37.456Z,100562.78
2019-05-02T21:52:22.780Z,100571.56
2019-05-02T21:54:58.911Z,100573.09
2019-05-02T21:57:27.356Z,100567.46
2019-05-02T21:59:55.782Z,100574.77
2019-05-02T22:02:24.458Z,100577.43
2019-05-02T22:04:53.635Z,100579.75
2019-05-02T22:07:22.111Z,100575.11
2019-05-02T22:09:52.287Z,100576.61
2019-05-02T22:12:22.518Z,100581.06
2019-05-02T22:14:52.856Z,100575.75
2019-05-02T22:17:21.637Z,100584.70
2019-05-02T22:19:52.273Z,100577.41
2019-05-02T22:22:20.405Z,100571.44
2019-05-02T22:24:48.847Z,100582.39
2019-05-02T22:27:17.513Z,100578.61
2019-05-02T22:29:45.947Z,100574.78
2019-05-02T22:32:14.462Z,100580.61
2019-05-02T22:34:45.301Z,100571.84
2019-05-02T22:37:15.213Z,100573.83
2019-05-02T22:39:45.424Z,100575.97
2019-05-02T22:42:13.883Z,100576.01
2019-05-02T22:44:42.303Z,100586.11
2019-05-02T22:47:11.739Z,100584.78
2019-05-02T22:49:42.398Z,100589.09
2019-05-02T22:52:12.205Z,100592.41
2019-05-02T22:54:41.659Z,100593.40
2019-05-02T22:57:11.564Z,100598.89
2019-05-02T22:59:42.168Z,100599.06
2019-05-02T23:02:12.608Z,100604.70
2019-05-02T23:04:41.788Z,100605.36
2019-05-02T23:07:10.240Z,100603.04
2019-05-02T23:09:38.663Z,100602.38
2019-05-02T23:12:07.821Z,100607.02
2019-05-02T23:14:36.244Z,100611.32
2019-05-02T23:17:04.978Z,100609.34
2019-05-02T23:19:33.677Z,100608.50
2019-05-02T23:22:02.274Z,100603.70
2019-05-02T23:24:52.007Z,100601.05
2019-05-02T23:27:22.453Z,100594.42
2019-05-02T23:29:52.019Z,100597.73
2019-05-02T23:32:23.599Z,100600.71
2019-05-02T23:34:52.277Z,100601.70
2019-05-02T23:37:20.874Z,100602.03
2019-05-02T23:39:49.595Z,100606.66
2019-05-02T23:42:18.006Z,100608.31
2019-05-02T23:44:46.503Z,100604.66
2019-05-02T23:47:15.450Z,100616.61
2019-05-02T23:49:43.880Z,100610.31
2019-05-02T23:52:12.400Z,100611.12
2019-05-02T23:54:49.998Z,100617.41
2019-05-02T23:57:12.128Z,100611.97
2019-05-02T23:59:42.440Z,100609.64
